Time;durP1;ratioP1;P1;durP2;ratioP2;P2;SDS_P1;SDS_P2;PMS_P1;PMS_P2;Temp;Humidity;BMP_temperature;BMP_pressure;BME280_temperature;BME280_humidity;BME280_pressure;Samples;Min_cycle;Max_cycle;Signal;HPM_P1;HPM_P2
2023/07/28 00:01:30;;;;;;;1.80;1.70;;;22.30;99.90;;;;;;5023849;28;20461;-88
2023/07/28 00:03:57;;;;;;;2.20;2.00;;;22.30;99.90;;;;;;5024688;28;20919;-88
2023/07/28 00:06:24;;;;;;;2.77;1.90;;;22.30;99.90;;;;;;5033801;28;20465;-88
2023/07/28 00:08:51;;;;;;;2.00;1.67;;;22.30;99.90;;;;;;5032002;28;20490;-89
2023/07/28 00:11:18;;;;;;;2.03;1.83;;;22.30;99.90;;;;;;5030250;28;20468;-88
2023/07/28 00:13:44;;;;;;;2.53;2.20;;;22.30;99.90;;;;;;5028766;28;20461;-88
2023/07/28 00:16:12;;;;;;;1.77;1.60;;;22.20;99.90;;;;;;5023320;28;20462;-88
2023/07/28 00:18:39;;;;;;;2.20;2.00;;;22.20;99.90;;;;;;5030171;28;21049;-89
2023/07/28 00:21:06;;;;;;;1.83;1.73;;;22.20;99.90;;;;;;5029539;28;20462;-89
2023/07/28 00:23:33;;;;;;;3.70;2.00;;;22.20;99.90;;;;;;5030256;28;20485;-88
2023/07/28 00:26:00;;;;;;;2.10;1.90;;;22.30;99.90;;;;;;5032039;28;20976;-88
2023/07/28 00:28:26;;;;;;;2.90;1.87;;;22.20;99.90;;;;;;5029585;28;20504;-88
2023/07/28 00:30:53;;;;;;;2.53;1.63;;;22.30;99.90;;;;;;5032915;28;20454;-89
2023/07/28 00:33:21;;;;;;;1.87;1.77;;;22.20;99.90;;;;;;5029487;28;20461;-88
2023/07/28 00:35:48;;;;;;;1.80;1.70;;;22.20;99.90;;;;;;5033247;28;20609;-88
2023/07/28 00:38:15;;;;;;;2.10;1.80;;;22.30;99.90;;;;;;5028687;28;20461;-88
2023/07/28 00:40:41;;;;;;;2.27;2.07;;;22.30;99.90;;;;;;5030548;28;20505;-87
2023/07/28 00:43:08;;;;;;;1.90;1.80;;;22.20;99.90;;;;;;5030995;28;20820;-88
2023/07/28 00:45:36;;;;;;;1.77;1.63;;;22.20;99.90;;;;;;5030332;28;20450;-88
2023/07/28 00:48:03;;;;;;;1.83;1.70;;;22.30;99.90;;;;;;5028578;28;20476;-87
2023/07/28 00:50:31;;;;;;;1.60;1.50;;;22.30;99.90;;;;;;5035222;28;20462;-87
2023/07/28 00:52:58;;;;;;;1.97;1.57;;;22.20;99.90;;;;;;5040762;28;21197;-89
2023/07/28 00:55:25;;;;;;;2.27;2.03;;;22.20;99.90;;;;;;5045714;28;20453;-89
2023/07/28 00:57:51;;;;;;;2.33;2.13;;;22.20;99.90;;;;;;5044693;28;20472;-89
2023/07/28 01:00:18;;;;;;;1.90;1.73;;;22.20;99.90;;;;;;5041802;28;20466;-89
2023/07/28 01:02:45;;;;;;;1.60;1.50;;;22.20;99.90;;;;;;5043251;28;20461;-89
2023/07/28 01:05:12;;;;;;;2.00;1.80;;;22.20;99.90;;;;;;5037626;28;20948;-89
2023/07/28 01:07:48;;;;;;;2.27;1.97;;;22.20;99.90;;;;;;5032676;28;20464;-89
2023/07/28 01:10:19;;;;;;;2.07;1.67;;;22.20;99.90;;;;;;5039961;28;20497;-89
2023/07/28 01:12:46;;;;;;;2.00;1.80;;;22.20;99.90;;;;;;5041342;28;20467;-88
2023/07/28 01:15:14;;;;;;;2.37;1.77;;;22.20;99.90;;;;;;5033876;28;20445;-89
2023/07/28 01:17:41;;;;;;;2.93;1.87;;;22.20;99.90;;;;;;5039483;28;20503;-89
2023/07/28 01:20:09;;;;;;;3.40;2.47;;;22.20;99.90;;;;;;5042741;28;20469;-89
2023/07/28 01:22:54;;;;;;;1.93;1.80;;;22.20;99.90;;;;;;5036916;28;20491;-89
2023/07/28 01:25:33;;;;;;;1.57;1.47;;;22.20;99.90;;;;;;5037993;28;20457;-89
2023/07/28 01:28:02;;;;;;;1.73;1.63;;;22.20;99.90;;;;;;5044288;28;20492;-88
2023/07/28 01:30:29;;;;;;;3.20;1.90;;;22.20;99.90;;;;;;5049914;28;20458;-88
2023/07/28 01:32:57;;;;;;;1.90;1.70;;;22.20;99.90;;;;;;5054631;28;20448;-89
2023/07/28 01:35:24;;;;;;;2.03;1.67;;;22.20;99.90;;;;;;5052226;28;20456;-88
2023/07/28 01:37:51;;;;;;;2.03;1.83;;;22.20;99.90;;;;;;5052879;28;20509;-88
2023/07/28 01:40:18;;;;;;;2.50;2.30;;;22.20;99.90;;;;;;5044647;28;20547;-89
2023/07/28 01:42:44;;;;;;;1.87;1.70;;;22.20;99.90;;;;;;5052318;28;20470;-89
2023/07/28 01:45:13;;;;;;;1.60;1.50;;;22.20;99.90;;;;;;5047769;28;20825;-89
2023/07/28 01:47:39;;;;;;;2.87;1.80;;;22.20;99.90;;;;;;5045888;28;20473;-90
2023/07/28 01:50:07;;;;;;;2.57;2.37;;;22.20;99.90;;;;;;5047795;28;20459;-89
2023/07/28 01:52:34;;;;;;;2.10;1.67;;;22.20;99.90;;;;;;5047685;28;20464;-89
2023/07/28 01:55:00;;;;;;;1.60;1.50;;;22.20;99.90;;;;;;5043960;28;20550;-88
2023/07/28 01:57:28;;;;;;;1.60;1.50;;;22.20;99.90;;;;;;5038619;28;20461;-88
2023/07/28 01:59:55;;;;;;;1.83;1.73;;;22.20;99.90;;;;;;5040152;28;20570;-89
2023/07/28 02:02:23;;;;;;;1.70;1.53;;;22.10;99.90;;;;;;5035808;28;21043;-88
2023/07/28 02:04:50;;;;;;;2.03;1.93;;;22.20;99.90;;;;;;5040908;28;20471;-89
2023/07/28 02:07:16;;;;;;;3.17;2.10;;;22.10;99.90;;;;;;5041502;28;20832;-89
2023/07/28 02:09:43;;;;;;;1.97;1.70;;;22.20;99.90;;;;;;5042070;28;20492;-89
2023/07/28 02:12:10;;;;;;;2.40;2.00;;;22.20;99.90;;;;;;5039916;28;20461;-89
2023/07/28 02:14:39;;;;;;;2.23;2.03;;;22.10;99.90;;;;;;5039936;28;21026;-86
2023/07/28 02:17:06;;;;;;;2.20;2.10;;;22.20;99.90;;;;;;5033575;28;20821;-80
2023/07/28 02:19:34;;;;;;;2.17;1.97;;;22.10;99.90;;;;;;5031981;28;20545;-80
2023/07/28 02:22:01;;;;;;;1.77;1.67;;;22.10;99.90;;;;;;5028724;28;20461;-80
2023/07/28 02:24:28;;;;;;;3.93;2.80;;;22.10;99.90;;;;;;5032709;28;21187;-80
2023/07/28 02:26:54;;;;;;;1.90;1.80;;;22.10;99.90;;;;;;5031483;28;20484;-80
2023/07/28 02:29:21;;;;;;;2.47;2.27;;;22.10;99.90;;;;;;5034079;28;21015;-80
2023/07/28 02:31:48;;;;;;;1.90;1.80;;;22.10;99.90;;;;;;5028877;28;20458;-80
2023/07/28 02:34:14;;;;;;;2.10;1.77;;;22.10;99.90;;;;;;5030515;28;20975;-80
2023/07/28 02:36:42;;;;;;;2.33;1.60;;;22.10;99.90;;;;;;5028688;28;20473;-80
2023/07/28 02:39:09;;;;;;;1.97;1.60;;;22.10;99.90;;;;;;5034302;28;20462;-80
2023/07/28 02:41:36;;;;;;;2.00;1.90;;;22.10;99.90;;;;;;5032054;28;21126;-80
2023/07/28 02:44:03;;;;;;;1.90;1.80;;;22.10;99.90;;;;;;5029842;28;20471;-80
2023/07/28 02:46:29;;;;;;;2.30;1.80;;;22.10;99.90;;;;;;5033294;28;20465;-80
2023/07/28 02:48:56;;;;;;;2.53;2.20;;;22.10;99.90;;;;;;5031199;28;20481;-80
2023/07/28 02:51:23;;;;;;;1.90;1.60;;;22.10;99.90;;;;;;5033233;28;20449;-80
2023/07/28 02:53:51;;;;;;;2.30;2.10;;;22.10;99.90;;;;;;5031635;28;20458;-80
2023/07/28 02:56:18;;;;;;;1.73;1.63;;;22.10;99.90;;;;;;5035323;28;20458;-80
2023/07/28 02:58:44;;;;;;;1.87;1.77;;;22.10;99.90;;;;;;5033459;28;20461;-80
2023/07/28 03:01:12;;;;;;;1.83;1.70;;;22.10;99.90;;;;;;5033958;28;20855;-80
2023/07/28 03:03:38;;;;;;;2.13;1.87;;;22.10;99.90;;;;;;5036362;28;21064;-80
2023/07/28 03:06:05;;;;;;;1.77;1.67;;;22.10;99.90;;;;;;5038373;28;20840;-80
2023/07/28 03:08:32;;;;;;;2.13;1.83;;;22.10;99.90;;;;;;5034517;28;20718;-80
2023/07/28 03:11:02;;;;;;;3.00;2.00;;;22.10;99.90;;;;;;5034949;28;20465;-82
2023/07/28 03:13:29;;;;;;;2.10;2.00;;;22.10;99.90;;;;;;5032648;28;20466;-82
2023/07/28 03:15:56;;;;;;;2.50;2.30;;;22.10;99.90;;;;;;5037011;28;20465;-82
2023/07/28 03:18:22;;;;;;;2.00;1.83;;;22.10;99.90;;;;;;5036418;28;20469;-82
2023/07/28 03:20:48;;;;;;;2.10;1.90;;;22.10;99.90;;;;;;5037369;28;20449;-82
2023/07/28 03:23:15;;;;;;;1.70;1.60;;;22.10;99.90;;;;;;5037442;28;20450;-82
2023/07/28 03:25:42;;;;;;;1.93;1.83;;;22.10;99.90;;;;;;5036513;28;20214;-82
2023/07/28 03:28:10;;;;;;;2.60;2.40;;;22.00;99.90;;;;;;5036737;28;20495;-82
2023/07/28 03:30:37;;;;;;;2.17;1.97;;;22.00;99.90;;;;;;5031758;28;20489;-82
2023/07/28 03:33:03;;;;;;;2.10;1.90;;;22.00;99.90;;;;;;5040808;28;20467;-83
2023/07/28 03:35:30;;;;;;;1.97;1.50;;;22.00;99.90;;;;;;5040864;28;20461;-83
2023/07/28 03:37:57;;;;;;;2.23;2.03;;;22.00;99.90;;;;;;5039260;28;20885;-83
2023/07/28 03:40:24;;;;;;;1.83;1.73;;;22.00;99.90;;;;;;5038963;28;21168;-83
2023/07/28 03:42:50;;;;;;;1.80;1.70;;;22.00;99.90;;;;;;5040850;28;20454;-82
2023/07/28 03:45:19;;;;;;;3.97;2.37;;;22.00;99.90;;;;;;5039038;28;20453;-83
2023/07/28 03:47:45;;;;;;;2.07;1.97;;;22.00;99.90;;;;;;5038311;28;20465;-83
2023/07/28 03:50:12;;;;;;;2.03;1.83;;;22.00;99.90;;;;;;5039324;28;20867;-82
2023/07/28 03:52:39;;;;;;;2.20;1.90;;;22.00;99.90;;;;;;5040921;28;20469;-84
2023/07/28 03:55:06;;;;;;;1.77;1.67;;;22.00;99.90;;;;;;5034929;28;20468;-83
2023/07/28 03:57:33;;;;;;;1.93;1.83;;;22.00;99.90;;;;;;5038998;28;20469;-83
2023/07/28 03:59:59;;;;;;;1.70;1.60;;;22.00;99.90;;;;;;5044490;28;20463;-83
2023/07/28 04:02:28;;;;;;;1.73;1.63;;;22.00;99.90;;;;;;5043569;28;20484;-82
2023/07/28 04:04:55;;;;;;;1.93;1.83;;;22.00;99.90;;;;;;5039439;28;20465;-83
2023/07/28 04:07:22;;;;;;;2.33;2.00;;;22.00;99.90;;;;;;5040582;28;20538;-83
2023/07/28 04:09:49;;;;;;;2.23;2.13;;;22.00;99.90;;;;;;5039922;28;20476;-84
2023/07/28 04:12:15;;;;;;;2.00;1.80;;;22.00;99.90;;;;;;5039871;28;20462;-82
2023/07/28 04:14:42;;;;;;;2.10;1.90;;;22.00;99.90;;;;;;5035874;28;20998;-83
2023/07/28 04:17:09;;;;;;;2.33;2.13;;;22.00;99.90;;;;;;5039929;28;20468;-83
2023/07/28 04:19:37;;;;;;;1.90;1.80;;;22.00;99.90;;;;;;5041108;28;21027;-82
2023/07/28 04:22:04;;;;;;;2.00;1.90;;;22.00;99.90;;;;;;5040963;28;20918;-82
2023/07/28 04:24:31;;;;;;;2.07;1.83;;;22.00;99.90;;;;;;5040666;28;20460;-82
2023/07/28 04:26:58;;;;;;;1.73;1.63;;;22.00;99.90;;;;;;5041065;28;20481;-82
2023/07/28 04:29:26;;;;;;;2.47;2.27;;;22.00;99.90;;;;;;5054076;28;20506;-82
2023/07/28 04:31:54;;;;;;;1.80;1.67;;;22.00;99.90;;;;;;5035663;28;20484;-82
2023/07/28 04:34:21;;;;;;;2.07;1.93;;;21.90;99.90;;;;;;5038227;28;21035;-82
2023/07/28 04:36:49;;;;;;;2.03;1.80;;;22.00;99.90;;;;;;5026925;28;20462;-83
2023/07/28 04:39:15;;;;;;;1.90;1.60;;;22.00;99.90;;;;;;5027191;28;20480;-82
2023/07/28 04:41:42;;;;;;;2.80;2.60;;;22.00;99.90;;;;;;5025958;28;20616;-82
2023/07/28 04:44:09;;;;;;;1.80;1.70;;;22.00;99.90;;;;;;5027032;28;20461;-81
2023/07/28 04:46:35;;;;;;;2.20;2.00;;;21.90;99.90;;;;;;5024518;28;21020;-82
2023/07/28 04:49:02;;;;;;;2.70;2.30;;;22.00;99.90;;;;;;5026657;28;20502;-82
2023/07/28 04:51:29;;;;;;;2.10;2.00;;;22.00;99.90;;;;;;5025762;28;21058;-81
2023/07/28 04:53:57;;;;;;;2.10;1.97;;;22.00;99.90;;;;;;5021432;28;20464;-82
2023/07/28 04:56:24;;;;;;;2.67;2.47;;;21.90;99.90;;;;;;5026471;28;20499;-81
2023/07/28 04:58:50;;;;;;;2.50;1.80;;;21.90;99.90;;;;;;5027159;28;20458;-82
2023/07/28 05:01:17;;;;;;;2.23;2.13;;;21.90;99.90;;;;;;5027658;28;20949;-83
2023/07/28 05:03:44;;;;;;;1.93;1.83;;;22.00;99.90;;;;;;5030584;28;20473;-83
2023/07/28 05:06:11;;;;;;;2.13;2.03;;;21.90;99.90;;;;;;5025966;28;20469;-82
2023/07/28 05:08:38;;;;;;;2.20;2.03;;;21.90;99.90;;;;;;5023157;28;20489;-82
2023/07/28 05:11:06;;;;;;;2.03;1.93;;;21.90;99.90;;;;;;5025044;28;20490;-83
2023/07/28 05:13:33;;;;;;;1.93;1.77;;;21.90;99.90;;;;;;5023068;28;20933;-83
2023/07/28 05:16:00;;;;;;;2.03;1.93;;;21.90;99.90;;;;;;5025856;28;21032;-83
2023/07/28 05:18:26;;;;;;;2.03;1.93;;;21.90;99.90;;;;;;5030292;28;20458;-83
2023/07/28 05:20:53;;;;;;;2.23;1.93;;;21.90;99.90;;;;;;5030894;28;20466;-83
2023/07/28 05:23:20;;;;;;;2.03;1.80;;;21.90;99.90;;;;;;5029542;28;20952;-83
2023/07/28 05:25:47;;;;;;;2.50;2.30;;;21.90;99.90;;;;;;5027818;28;21068;-83
2023/07/28 05:28:15;;;;;;;1.50;1.40;;;21.90;99.90;;;;;;5029378;28;21020;-83
2023/07/28 05:30:42;;;;;;;1.80;1.70;;;21.90;99.90;;;;;;5026764;28;20484;-83
2023/07/28 05:33:08;;;;;;;2.30;2.10;;;21.90;99.90;;;;;;5031503;28;20462;-83
2023/07/28 05:35:35;;;;;;;2.37;2.23;;;21.90;99.90;;;;;;5029134;28;20464;-83
2023/07/28 05:38:02;;;;;;;2.60;2.13;;;21.90;99.90;;;;;;5029526;28;20465;-83
2023/07/28 05:40:29;;;;;;;2.03;1.80;;;21.90;99.90;;;;;;5029830;28;20833;-80
2023/07/28 05:42:56;;;;;;;1.88;1.70;;;21.90;99.90;;;;;;5028628;28;20453;-80
2023/07/28 05:45:24;;;;;;;2.60;2.40;;;21.90;99.90;;;;;;5026167;28;21826;-80
2023/07/28 05:47:50;;;;;;;2.03;1.83;;;21.90;99.90;;;;;;5029266;28;20465;-80
2023/07/28 05:50:17;;;;;;;2.10;1.90;;;21.90;99.90;;;;;;5031072;28;20887;-80
2023/07/28 05:52:44;;;;;;;2.30;1.83;;;21.90;99.90;;;;;;5029287;28;20477;-80
2023/07/28 05:55:11;;;;;;;2.37;1.90;;;21.90;99.90;;;;;;5031294;28;20466;-81
2023/07/28 05:57:38;;;;;;;5.30;1.80;;;21.90;99.90;;;;;;5029318;28;21047;-80
2023/07/28 06:00:09;;;;;;;2.03;1.83;;;21.90;99.90;;;;;;5031097;28;20501;-79
2023/07/28 06:02:37;;;;;;;2.03;1.63;;;21.90;99.90;;;;;;5030793;28;20468;-78
2023/07/28 06:05:05;;;;;;;1.90;1.80;;;21.90;99.90;;;;;;5031729;28;20973;-79
2023/07/28 06:07:31;;;;;;;2.67;1.73;;;21.90;99.90;;;;;;5027569;28;20454;-78
2023/07/28 06:09:59;;;;;;;2.20;2.00;;;21.90;99.90;;;;;;5030418;28;20473;-78
2023/07/28 06:12:25;;;;;;;2.07;1.97;;;21.90;99.90;;;;;;5031920;28;20982;-79
2023/07/28 06:14:52;;;;;;;3.13;2.00;;;22.00;99.90;;;;;;5031016;28;20461;-78
2023/07/28 06:17:19;;;;;;;4.50;2.03;;;22.00;99.90;;;;;;5032403;28;20476;-78
2023/07/28 06:19:47;;;;;;;1.80;1.70;;;21.90;99.90;;;;;;5036286;28;20473;-79
2023/07/28 06:22:14;;;;;;;3.10;2.30;;;22.00;99.90;;;;;;5036944;28;20457;-79
2023/07/28 06:24:40;;;;;;;2.03;1.73;;;21.90;99.90;;;;;;5025666;28;20472;-79
2023/07/28 06:27:08;;;;;;;2.20;2.10;;;22.00;99.90;;;;;;5039949;28;20473;-79
2023/07/28 06:29:36;;;;;;;5.17;2.33;;;22.00;99.90;;;;;;5037740;28;20596;-78
2023/07/28 06:32:03;;;;;;;2.03;1.73;;;21.90;99.90;;;;;;5042035;28;20983;-77
2023/07/28 06:34:29;;;;;;;3.00;2.10;;;21.90;99.90;;;;;;5038174;28;20493;-76
2023/07/28 06:36:57;;;;;;;2.10;1.90;;;22.00;99.90;;;;;;5035341;28;20449;-76
2023/07/28 06:39:24;;;;;;;3.80;3.10;;;22.00;99.90;;;;;;5039791;28;20462;-76
2023/07/28 06:41:51;;;;;;;6.70;2.00;;;22.00;99.90;;;;;;5036116;28;20830;-76
2023/07/28 06:44:18;;;;;;;5.07;1.63;;;22.00;99.90;;;;;;5039221;28;20976;-76
2023/07/28 06:46:45;;;;;;;1.90;1.70;;;22.00;99.90;;;;;;5038121;28;21027;-76
2023/07/28 06:49:11;;;;;;;2.17;1.93;;;22.00;99.90;;;;;;5040914;28;21018;-76
2023/07/28 06:51:38;;;;;;;1.97;1.87;;;22.00;99.90;;;;;;5040473;28;20481;-74
2023/07/28 06:54:09;;;;;;;2.40;2.13;;;21.90;99.90;;;;;;5030522;28;20462;-77
2023/07/28 06:56:36;;;;;;;5.13;2.00;;;21.90;99.90;;;;;;5035684;28;20793;-77
2023/07/28 06:59:03;;;;;;;5.50;2.33;;;21.90;99.90;;;;;;5039372;28;20466;-77
2023/07/28 07:01:30;;;;;;;2.00;1.90;;;22.00;99.90;;;;;;5038250;28;20819;-77
2023/07/28 07:03:57;;;;;;;1.90;1.80;;;21.90;99.90;;;;;;5040154;28;20453;-77
2023/07/28 07:06:24;;;;;;;2.07;1.87;;;21.90;99.90;;;;;;5038690;28;20975;-76
2023/07/28 07:08:51;;;;;;;2.55;1.98;;;22.00;99.90;;;;;;5038000;28;20469;-76
2023/07/28 07:11:19;;;;;;;2.80;2.60;;;21.90;99.90;;;;;;5039212;28;20581;-76
2023/07/28 07:13:45;;;;;;;2.50;2.30;;;21.90;99.90;;;;;;5039731;28;20457;-77
2023/07/28 07:16:16;;;;;;;3.10;2.20;;;21.90;99.90;;;;;;5034762;28;20980;-78
2023/07/28 07:18:43;;;;;;;5.63;2.53;;;21.90;99.90;;;;;;5032553;28;20944;-79
2023/07/28 07:21:10;;;;;;;3.43;2.70;;;22.00;99.90;;;;;;5036669;28;20483;-78
2023/07/28 07:23:37;;;;;;;2.60;2.40;;;22.00;99.90;;;;;;5031010;28;20960;-75
2023/07/28 07:26:04;;;;;;;3.20;2.90;;;22.00;99.90;;;;;;5048593;28;20476;-77
2023/07/28 07:28:32;;;;;;;4.53;2.63;;;22.00;99.90;;;;;;5053348;28;20501;-76
2023/07/28 07:30:59;;;;;;;2.83;2.43;;;21.90;99.90;;;;;;5047730;28;20504;-75
2023/07/28 07:33:25;;;;;;;4.60;2.00;;;21.90;99.90;;;;;;5050597;28;20467;-76
2023/07/28 07:35:52;;;;;;;2.93;2.63;;;22.00;99.90;;;;;;5051025;28;20479;-75
2023/07/28 07:38:19;;;;;;;3.00;2.80;;;22.00;99.90;;;;;;5044772;28;20459;-75
2023/07/28 07:40:48;;;;;;;3.60;3.20;;;22.00;99.90;;;;;;5041569;28;20472;-74
2023/07/28 07:43:18;;;;;;;2.70;2.50;;;21.90;99.90;;;;;;5045231;28;20572;-75
2023/07/28 07:45:49;;;;;;;3.17;2.90;;;22.00;99.90;;;;;;5054064;28;21048;-74
2023/07/28 07:48:16;;;;;;;3.57;3.20;;;22.00;99.90;;;;;;5057029;28;20457;-74
2023/07/28 07:50:43;;;;;;;4.23;2.20;;;22.00;99.90;;;;;;5053555;28;21021;-74
2023/07/28 07:53:10;;;;;;;3.93;3.47;;;22.00;99.90;;;;;;5051900;28;20464;-74
2023/07/28 07:55:37;;;;;;;3.37;3.17;;;22.00;99.90;;;;;;5050029;28;21084;-76
2023/07/28 07:58:04;;;;;;;3.20;3.00;;;22.00;99.90;;;;;;5052344;28;20460;-74
2023/07/28 08:00:31;;;;;;;2.90;2.70;;;22.00;99.90;;;;;;5051578;28;20806;-75
2023/07/28 08:02:59;;;;;;;4.43;3.30;;;22.00;99.90;;;;;;5051679;28;21075;-75
2023/07/28 08:05:26;;;;;;;2.93;2.73;;;22.00;99.90;;;;;;5052149;28;20461;-76
2023/07/28 08:07:52;;;;;;;3.57;3.27;;;22.00;99.90;;;;;;5051095;28;20854;-76
2023/07/28 08:10:19;;;;;;;3.10;2.90;;;22.00;99.90;;;;;;5052470;28;20477;-76
2023/07/28 08:12:47;;;;;;;3.83;3.50;;;22.00;99.90;;;;;;5050623;28;21244;-76
2023/07/28 08:15:14;;;;;;;3.90;3.00;;;22.00;99.90;;;;;;5050121;28;20997;-75
2023/07/28 08:17:40;;;;;;;7.10;3.10;;;22.00;99.90;;;;;;5048906;28;21039;-76
2023/07/28 08:20:10;;;;;;;3.30;3.03;;;22.00;99.90;;;;;;5046725;28;20809;-76
2023/07/28 08:22:37;;;;;;;3.20;2.90;;;22.00;99.90;;;;;;5047359;28;20807;-76
2023/07/28 08:25:04;;;;;;;4.13;3.70;;;22.00;99.90;;;;;;5045706;28;20468;-75
2023/07/28 08:27:31;;;;;;;5.63;3.27;;;22.00;99.90;;;;;;5045080;28;20901;-75
2023/07/28 08:29:57;;;;;;;3.43;3.20;;;22.00;99.90;;;;;;5047032;28;20462;-75
2023/07/28 08:32:24;;;;;;;3.30;3.00;;;22.00;99.90;;;;;;5048415;28;20468;-75
2023/07/28 08:34:51;;;;;;;3.53;3.23;;;22.00;99.90;;;;;;5046342;28;20979;-76
2023/07/28 08:37:19;;;;;;;4.57;3.53;;;22.00;99.90;;;;;;5041357;28;21025;-75
2023/07/28 08:39:46;;;;;;;3.97;3.67;;;22.00;99.90;;;;;;5042612;28;20461;-75
2023/07/28 08:42:13;;;;;;;4.27;3.97;;;22.00;99.90;;;;;;5046002;28;20455;-76
2023/07/28 08:44:40;;;;;;;4.27;3.97;;;22.00;99.90;;;;;;5043567;28;20468;-75
2023/07/28 08:47:07;;;;;;;4.37;4.07;;;22.00;99.90;;;;;;5041871;28;20483;-75
2023/07/28 08:49:36;;;;;;;4.23;3.83;;;22.00;99.90;;;;;;5048551;28;20452;-75
2023/07/28 08:52:04;;;;;;;4.27;3.97;;;22.00;99.90;;;;;;5043960;28;20576;-75
2023/07/28 08:54:32;;;;;;;4.50;4.10;;;22.00;99.90;;;;;;5045650;28;20460;-76
2023/07/28 08:56:59;;;;;;;4.83;4.47;;;22.00;99.90;;;;;;5044832;28;20463;-75
2023/07/28 08:59:27;;;;;;;5.33;4.83;;;22.00;99.90;;;;;;5048738;28;20455;-76
2023/07/28 09:01:55;;;;;;;5.00;4.60;;;22.00;99.90;;;;;;5047652;28;20449;-76
2023/07/28 09:04:22;;;;;;;5.47;4.97;;;22.00;99.90;;;;;;5046025;28;20558;-76
2023/07/28 09:06:50;;;;;;;5.33;4.83;;;22.00;99.90;;;;;;5047716;28;20450;-76
2023/07/28 09:09:19;;;;;;;5.67;5.27;;;22.00;99.90;;;;;;5051422;28;20459;-76
2023/07/28 09:11:48;;;;;;;5.87;5.27;;;22.00;99.90;;;;;;5045455;28;20584;-76
2023/07/28 09:14:17;;;;;;;5.63;5.23;;;22.00;99.90;;;;;;5038525;28;20568;-76
2023/07/28 09:16:43;;;;;;;5.43;5.00;;;22.00;99.90;;;;;;5040111;28;20526;-76
2023/07/28 09:19:11;;;;;;;5.00;4.60;;;22.00;99.90;;;;;;5041853;28;20453;-76
2023/07/28 09:21:40;;;;;;;5.90;5.23;;;22.00;99.90;;;;;;5041573;28;20544;-76
2023/07/28 09:24:07;;;;;;;5.77;5.27;;;22.00;99.90;;;;;;5047817;28;20498;-76
2023/07/28 09:26:38;;;;;;;5.27;4.97;;;22.00;99.90;;;;;;5048236;28;20492;-76
2023/07/28 09:29:14;;;;;;;6.20;5.40;;;22.00;99.90;;;;;;5043469;28;21739;-76
2023/07/28 09:31:41;;;;;;;5.70;5.20;;;22.00;99.90;;;;;;5042029;28;20575;-75
2023/07/28 09:34:09;;;;;;;5.47;4.97;;;22.00;99.90;;;;;;5043661;28;20460;-76
2023/07/28 09:36:38;;;;;;;5.50;5.00;;;22.00;99.90;;;;;;5045028;28;20528;-76
2023/07/28 09:39:07;;;;;;;5.97;5.30;;;22.00;99.90;;;;;;5041694;28;20453;-76
2023/07/28 09:41:35;;;;;;;6.13;5.07;;;22.00;99.90;;;;;;5043830;28;20989;-76
2023/07/28 09:44:01;;;;;;;6.40;5.90;;;22.00;99.90;;;;;;5042869;28;20457;-76
2023/07/28 09:46:30;;;;;;;6.30;5.80;;;22.10;99.90;;;;;;5042875;28;20450;-76
2023/07/28 09:48:59;;;;;;;6.23;5.77;;;22.00;99.90;;;;;;5040985;28;21343;-76
2023/07/28 09:51:31;;;;;;;5.30;4.90;;;22.00;99.90;;;;;;5039781;28;20485;-75
2023/07/28 09:54:05;;;;;;;6.87;4.90;;;22.00;99.90;;;;;;5039407;28;21167;-75
2023/07/28 09:56:32;;;;;;;6.13;5.53;;;22.00;99.90;;;;;;5042249;28;20449;-75
2023/07/28 09:59:03;;;;;;;6.00;5.60;;;22.00;99.90;;;;;;5050455;28;20559;-75
2023/07/28 10:01:33;;;;;;;6.87;6.27;;;22.00;99.90;;;;;;5054134;28;20934;-76
2023/07/28 10:04:00;;;;;;;6.43;5.93;;;22.00;99.90;;;;;;5050951;28;20471;-76
2023/07/28 10:06:27;;;;;;;5.53;5.13;;;22.00;99.90;;;;;;5058940;28;20444;-76
2023/07/28 10:08:54;;;;;;;6.83;6.00;;;22.10;99.90;;;;;;5056124;28;20460;-75
2023/07/28 10:11:22;;;;;;;6.17;5.70;;;22.10;99.90;;;;;;5050398;28;20480;-76
2023/07/28 10:13:52;;;;;;;6.97;6.10;;;22.10;99.90;;;;;;5053075;28;20457;-76
2023/07/28 10:16:19;;;;;;;6.60;6.00;;;22.10;99.90;;;;;;5057053;28;20461;-76
2023/07/28 10:18:55;;;;;;;6.70;6.20;;;22.10;99.90;;;;;;5043295;28;21120;-76
2023/07/28 10:21:21;;;;;;;6.23;5.63;;;22.10;99.90;;;;;;5053569;28;20819;-75
2023/07/28 10:23:56;;;;;;;7.60;7.00;;;22.10;99.90;;;;;;5039434;28;20466;-76
2023/07/28 10:26:32;;;;;;;7.60;7.00;;;22.10;99.90;;;;;;5052819;28;20834;-75
2023/07/28 10:29:10;;;;;;;7.67;7.07;;;22.10;99.90;;;;;;5047208;28;20847;-76
2023/07/28 10:31:37;;;;;;;7.60;6.90;;;22.10;99.90;;;;;;5050223;28;21026;-75
2023/07/28 10:34:05;;;;;;;7.37;6.60;;;22.10;99.90;;;;;;5045126;28;20457;-75
2023/07/28 10:36:36;;;;;;;7.30;6.70;;;22.10;99.90;;;;;;5043309;28;20973;-75
2023/07/28 10:39:14;;;;;;;8.37;7.57;;;22.10;99.90;;;;;;5048349;28;21509;-75
2023/07/28 10:42:00;;;;;;;8.27;7.57;;;22.10;99.90;;;;;;5051664;28;20452;-77
2023/07/28 10:44:27;;;;;;;8.80;8.00;;;22.10;99.90;;;;;;5053455;28;20457;-75
2023/07/28 10:46:55;;;;;;;7.90;7.20;;;22.10;99.90;;;;;;5044221;28;20461;-79
2023/07/28 10:49:24;;;;;;;7.97;7.37;;;22.10;99.90;;;;;;5046687;28;20492;-81
2023/07/28 10:51:51;;;;;;;8.67;7.87;;;22.20;99.90;;;;;;5048859;28;20476;-78
2023/07/28 10:54:19;;;;;;;16.47;8.33;;;22.20;99.90;;;;;;5045502;28;20460;-80
2023/07/28 10:56:47;;;;;;;6.77;6.20;;;22.20;99.90;;;;;;5047957;28;20453;-83
2023/07/28 10:59:15;;;;;;;11.00;7.57;;;22.20;99.90;;;;;;5039444;28;20539;-77
2023/07/28 11:01:42;;;;;;;7.93;6.27;;;22.20;99.90;;;;;;5051539;28;20457;-78
2023/07/28 11:04:11;;;;;;;7.83;7.20;;;22.20;99.90;;;;;;5049921;28;21030;-81
2023/07/28 11:06:43;;;;;;;7.53;7.03;;;22.20;99.90;;;;;;5050523;28;20452;-81
2023/07/28 11:09:10;;;;;;;8.30;7.50;;;22.20;99.90;;;;;;5049225;28;20903;-80
2023/07/28 11:11:38;;;;;;;7.73;7.20;;;22.30;99.90;;;;;;5050590;28;20504;-76
2023/07/28 11:14:07;;;;;;;7.20;6.70;;;22.30;99.90;;;;;;5043714;28;20955;-83
2023/07/28 11:16:35;;;;;;;6.80;6.20;;;22.30;99.90;;;;;;5038330;28;20460;-79
2023/07/28 11:19:03;;;;;;;7.83;7.00;;;22.30;99.90;;;;;;5041039;28;20461;-80
2023/07/28 11:21:32;;;;;;;8.57;6.87;;;22.30;99.90;;;;;;5047287;28;20925;-82
2023/07/28 11:24:00;;;;;;;7.20;6.60;;;22.30;99.90;;;;;;5043451;28;20476;-84
2023/07/28 11:26:29;;;;;;;5.83;5.43;;;22.40;99.90;;;;;;5045920;28;20480;-81
2023/07/28 11:28:56;;;;;;;6.90;6.40;;;22.40;99.90;;;;;;5048152;28;20476;-81
2023/07/28 11:31:26;;;;;;;6.83;6.33;;;22.40;99.90;;;;;;5041795;28;20492;-82
2023/07/28 11:33:54;;;;;;;6.90;6.30;;;22.40;99.90;;;;;;5038086;28;20461;-83
2023/07/28 11:36:24;;;;;;;7.73;7.03;;;22.40;99.90;;;;;;5039000;28;20465;-84
2023/07/28 11:38:52;;;;;;;7.33;6.63;;;22.50;99.90;;;;;;5037473;28;20991;-83
2023/07/28 11:41:21;;;;;;;7.87;7.27;;;22.50;99.90;;;;;;5038701;28;20469;-82
2023/07/28 11:43:48;;;;;;;7.33;6.73;;;22.50;99.90;;;;;;5036805;28;20816;-84
2023/07/28 11:46:40;;;;;;;6.57;5.97;;;22.50;99.90;;;;;;5038350;28;20457;-83
2023/07/28 11:49:15;;;;;;;7.33;6.70;;;22.50;99.90;;;;;;5025008;28;20842;-77
2023/07/28 11:51:43;;;;;;;6.70;6.20;;;22.50;99.90;;;;;;5041654;28;20496;-80
2023/07/28 11:54:12;;;;;;;6.70;5.80;;;22.60;99.90;;;;;;5039100;28;20552;-81
2023/07/28 11:56:42;;;;;;;5.97;5.30;;;22.60;99.90;;;;;;5045539;28;21066;-82
2023/07/28 11:59:08;;;;;;;5.93;5.43;;;22.60;99.90;;;;;;5042651;28;20560;-80
2023/07/28 12:01:35;;;;;;;7.27;6.77;;;22.60;99.90;;;;;;5040498;28;20453;-79
2023/07/28 12:04:20;;;;;;;6.20;5.80;;;22.60;99.90;;;;;;5037851;28;20989;-80
2023/07/28 12:07:02;;;;;;;6.80;6.30;;;22.60;99.90;;;;;;5037871;28;20445;-78
2023/07/28 12:09:29;;;;;;;5.73;5.37;;;22.60;99.90;;;;;;5041830;28;20445;-79
2023/07/28 12:11:58;;;;;;;6.80;6.30;;;22.70;99.90;;;;;;5039917;28;20477;-78
2023/07/28 12:14:32;;;;;;;6.53;6.03;;;22.70;99.90;;;;;;5040990;28;20810;-81
2023/07/28 12:17:00;;;;;;;6.73;6.23;;;22.70;99.90;;;;;;5042716;28;20858;-83
2023/07/28 12:19:27;;;;;;;6.97;6.43;;;22.70;99.90;;;;;;5041236;28;20452;-83
2023/07/28 12:21:54;;;;;;;6.23;5.83;;;22.70;99.90;;;;;;5040498;28;20465;-85
2023/07/28 12:24:20;;;;;;;6.00;5.60;;;22.70;99.90;;;;;;5041473;28;20461;-85
2023/07/28 12:26:47;;;;;;;6.80;6.30;;;22.70;99.90;;;;;;5039104;28;20480;-84
2023/07/28 12:29:16;;;;;;;6.37;5.90;;;22.80;99.90;;;;;;5039360;28;20469;-84
2023/07/28 12:31:43;;;;;;;6.57;6.07;;;22.80;99.90;;;;;;5042275;28;20484;-85
2023/07/28 12:34:09;;;;;;;6.37;5.97;;;22.80;99.90;;;;;;5055829;28;20440;-81
2023/07/28 12:36:36;;;;;;;6.50;6.03;;;22.80;99.90;;;;;;5054010;28;20892;-82
2023/07/28 12:39:03;;;;;;;6.50;6.00;;;22.80;99.90;;;;;;5056439;28;20448;-83
2023/07/28 12:41:30;;;;;;;6.43;5.93;;;22.80;99.90;;;;;;5057428;28;20457;-82
2023/07/28 12:43:56;;;;;;;6.33;5.90;;;22.80;99.90;;;;;;5053104;28;20456;-82
2023/07/28 12:46:24;;;;;;;5.97;5.57;;;22.90;99.90;;;;;;5050865;28;20453;-83
2023/07/28 12:48:51;;;;;;;6.60;6.13;;;22.90;99.90;;;;;;5053585;28;20676;-84
2023/07/28 12:51:18;;;;;;;5.67;5.27;;;22.90;99.90;;;;;;5045841;28;20453;-83